Time;durP1;ratioP1;P1;durP2;ratioP2;P2;SDS_P1;SDS_P2;PMS_P1;PMS_P2;Temp;Humidity;BMP_temperature;BMP_pressure;BME280_temperature;BME280_humidity;BME280_pressure;Samples;Min_cycle;Max_cycle;Signal;HPM_P1;HPM_P2
2021/09/20 00:01:55;;;;;;;12.60;9.08;;;;;;;10.63;81.98;100437.21;3051657;78;20975;-57
2021/09/20 00:06:10;;;;;;;10.25;8.68;;;;;;;10.63;81.92;100434.08;3051541;78;20990;-56
2021/09/20 00:10:12;;;;;;;10.85;9.33;;;;;;;10.65;82.13;100433.47;3060462;77;20971;-57
2021/09/20 00:14:37;;;;;;;11.48;9.70;;;;;;;10.63;81.81;100435.41;3061646;77;20998;-57
2021/09/20 00:18:40;;;;;;;11.45;9.68;;;;;;;10.57;81.69;100439.87;3060950;77;21002;-57
2021/09/20 00:22:43;;;;;;;10.50;8.45;;;;;;;10.63;82.28;100442.06;3061291;77;21011;-58
2021/09/20 00:27:12;;;;;;;12.37;9.13;;;;;;;10.68;82.44;100446.99;3061310;77;20975;-57
2021/09/20 00:31:15;;;;;;;12.82;10.38;;;;;;;10.69;82.45;100437.57;3061228;77;20913;-56
2021/09/20 00:35:17;;;;;;;13.35;11.78;;;;;;;10.67;83.10;100435.52;3061308;77;20967;-57
2021/09/20 00:39:18;;;;;;;14.53;10.98;;;;;;;10.57;83.70;100439.41;3061307;77;20971;-59
2021/09/20 00:43:24;;;;;;;18.23;8.45;;;;;;;10.53;85.06;100437.09;3061186;77;21035;-58
2021/09/20 00:47:27;;;;;;;13.93;9.53;;;;;;;10.56;86.12;100440.84;3061781;77;20999;-57
2021/09/20 00:51:29;;;;;;;14.07;10.55;;;;;;;10.57;86.55;100436.74;3061505;78;20948;-56
2021/09/20 00:55:33;;;;;;;10.98;8.58;;;;;;;10.67;87.05;100440.84;3061355;77;21022;-56
2021/09/20 00:59:36;;;;;;;10.63;9.35;;;;;;;10.76;87.16;100442.39;2994241;78;20967;-56
2021/09/20 01:03:39;;;;;;;13.15;9.13;;;;;;;10.88;87.73;100436.56;3029583;78;20955;-57
2021/09/20 01:07:46;;;;;;;12.07;9.90;;;;;;;10.89;87.10;100428.47;3019560;78;21030;-56
2021/09/20 01:11:49;;;;;;;14.38;10.00;;;;;;;10.91;87.78;100429.19;3066258;77;20963;-57
2021/09/20 01:15:54;;;;;;;10.90;9.73;;;;;;;10.88;87.74;100424.59;3066505;77;20955;-57
2021/09/20 01:20:11;;;;;;;12.00;9.40;;;;;;;10.90;88.34;100426.16;3066307;77;20960;-57
2021/09/20 01:24:14;;;;;;;10.95;9.18;;;;;;;10.96;88.56;100421.66;3066519;77;20900;-57
2021/09/20 01:28:16;;;;;;;12.53;9.30;;;;;;;11.06;89.15;100424.42;3066518;77;20963;-58
2021/09/20 01:33:00;;;;;;;12.25;9.43;;;;;;;11.18;88.67;100423.89;3066106;77;20975;-60
2021/09/20 01:37:03;;;;;;;10.98;9.68;;;;;;;11.14;88.07;100420.66;3066192;77;21065;-58
2021/09/20 01:41:06;;;;;;;10.88;9.15;;;;;;;11.10;88.75;100416.56;3066270;77;20975;-57
2021/09/20 01:45:10;;;;;;;13.08;10.03;;;;;;;11.16;89.35;100413.86;3066247;77;20962;-57
2021/09/20 01:49:15;;;;;;;11.85;10.28;;;;;;;11.20;89.24;100415.32;3066343;77;20986;-56
2021/09/20 01:53:17;;;;;;;9.97;8.93;;;;;;;11.25;89.09;100418.44;3066617;77;20959;-56
2021/09/20 01:57:22;;;;;;;10.93;8.60;;;;;;;11.28;89.00;100420.84;3066239;77;20975;-58
2021/09/20 02:01:26;;;;;;;11.45;10.25;;;;;;;11.25;88.99;100426.43;3066125;77;20986;-60
2021/09/20 02:05:28;;;;;;;10.08;8.53;;;;;;;11.23;90.04;100425.72;3066349;77;20959;-57
2021/09/20 02:09:30;;;;;;;8.75;7.62;;;;;;;11.27;90.21;100425.81;3066255;77;20963;-57
2021/09/20 02:13:33;;;;;;;13.48;9.48;;;;;;;11.32;89.81;100427.24;3066224;77;21571;-56
2021/09/20 02:17:35;;;;;;;15.13;11.10;;;;;;;11.23;89.56;100427.05;3065985;77;20967;-57
2021/09/20 02:21:44;;;;;;;11.60;10.30;;;;;;;11.26;89.94;100430.78;3066432;77;20998;-56
2021/09/20 02:25:46;;;;;;;15.63;11.57;;;;;;;11.34;90.56;100428.82;3066160;77;20948;-57
2021/09/20 02:29:53;;;;;;;13.40;10.03;;;;;;;11.50;90.45;100427.05;3066171;77;20923;-56
2021/09/20 02:33:56;;;;;;;11.48;10.28;;;;;;;11.59;90.00;100425.43;3065789;77;20964;-57
2021/09/20 02:38:00;;;;;;;13.32;10.00;;;;;;;11.65;89.66;100430.73;3066300;77;20939;-57
2021/09/20 02:42:03;;;;;;;10.78;9.00;;;;;;;11.68;89.40;100439.30;3066344;77;20932;-56
2021/09/20 02:46:06;;;;;;;13.18;9.88;;;;;;;11.62;89.02;100437.66;3066497;77;21019;-57
2021/09/20 02:50:11;;;;;;;13.83;9.90;;;;;;;11.65;89.75;100437.39;3065768;77;21019;-56
2021/09/20 02:54:18;;;;;;;16.30;9.55;;;;;;;11.66;89.91;100431.92;3066080;77;20971;-56
2021/09/20 02:58:21;;;;;;;13.48;9.15;;;;;;;11.65;89.00;100434.73;3066282;77;20975;-60
2021/09/20 03:02:39;;;;;;;13.32;8.85;;;;;;;11.53;88.86;100436.11;3066377;77;20986;-56
2021/09/20 03:06:41;;;;;;;10.48;7.97;;;;;;;11.47;88.09;100441.09;3066444;77;21041;-58
2021/09/20 03:10:45;;;;;;;16.07;10.15;;;;;;;11.36;87.89;100441.98;3071878;77;21018;-57
2021/09/20 03:14:48;;;;;;;14.35;10.40;;;;;;;11.31;89.93;100446.39;3076060;77;20908;-57
2021/09/20 03:18:50;;;;;;;13.62;10.43;;;;;;;11.41;91.13;100452.62;3076320;77;20987;-56
2021/09/20 03:22:53;;;;;;;10.85;8.80;;;;;;;11.56;91.33;100449.67;3076029;77;21260;-56
2021/09/20 03:27:07;;;;;;;14.23;11.43;;;;;;;11.56;91.24;100447.83;3028287;77;20990;-57
2021/09/20 03:31:09;;;;;;;9.55;8.55;;;;;;;11.65;91.71;100451.55;3028496;78;20959;-56
2021/09/20 03:35:14;;;;;;;9.95;8.88;;;;;;;11.71;91.24;100447.53;3066417;77;20999;-57
2021/09/20 03:39:18;;;;;;;12.82;10.23;;;;;;;11.78;91.68;100443.36;3066162;77;20982;-56
2021/09/20 03:43:19;;;;;;;11.05;9.40;;;;;;;11.83;91.63;100453.16;3061478;77;20978;-60
2021/09/20 03:47:22;;;;;;;15.15;9.48;;;;;;;11.88;90.78;100450.09;3028155;77;20972;-59
2021/09/20 03:51:42;;;;;;;9.43;7.67;;;;;;;11.81;90.33;100453.78;2971713;77;21018;-56
2021/09/20 03:55:44;;;;;;;10.80;7.97;;;;;;;11.81;90.48;100461.78;2971851;80;21003;-56
2021/09/20 03:59:52;;;;;;;11.95;8.35;;;;;;;11.75;90.82;100458.28;2972022;80;20983;-57
2021/09/20 04:03:58;;;;;;;18.82;11.95;;;;;;;11.70;91.40;100460.50;2971724;80;20967;-56
2021/09/20 04:08:00;;;;;;;11.80;10.43;;;;;;;11.63;91.54;100461.48;2997686;78;20987;-56
2021/09/20 04:12:04;;;;;;;14.53;10.08;;;;;;;11.66;92.52;100465.73;3015279;79;21280;-57
2021/09/20 04:16:07;;;;;;;14.98;12.07;;;;;;;11.68;92.14;100461.11;3014757;79;20923;-56
2021/09/20 04:20:11;;;;;;;16.02;9.68;;;;;;;11.77;92.80;100466.16;3014999;79;20963;-57
2021/09/20 04:24:22;;;;;;;13.08;11.78;;;;;;;11.86;92.83;100468.89;3056815;78;20952;-59
2021/09/20 04:28:24;;;;;;;11.18;10.00;;;;;;;11.93;92.77;100472.36;3056758;78;20955;-57
2021/09/20 04:32:27;;;;;;;13.03;10.65;;;;;;;11.98;92.22;100472.81;3056886;77;20955;-56
2021/09/20 04:36:29;;;;;;;14.07;11.05;;;;;;;11.98;92.08;100470.14;3056276;77;20983;-57
2021/09/20 04:40:34;;;;;;;14.07;12.05;;;;;;;12.05;92.26;100479.36;3063080;77;20990;-57
2021/09/20 04:44:36;;;;;;;14.10;11.60;;;;;;;12.06;91.83;100475.72;3056199;77;21023;-57
2021/09/20 04:48:38;;;;;;;17.65;11.25;;;;;;;11.98;92.21;100472.34;3056762;78;20920;-56
2021/09/20 04:52:54;;;;;;;13.18;9.75;;;;;;;11.91;91.67;100472.51;3056650;78;20955;-56
2021/09/20 04:56:59;;;;;;;12.13;9.80;;;;;;;11.88;92.33;100474.08;3056625;78;20948;-56
2021/09/20 05:01:02;;;;;;;15.05;11.18;;;;;;;11.90;92.43;100481.95;3055807;78;20975;-60
2021/09/20 05:05:05;;;;;;;12.53;11.00;;;;;;;11.93;92.15;100476.36;3019297;79;20948;-57
2021/09/20 05:09:27;;;;;;;11.70;10.50;;;;;;;11.98;92.54;100487.00;3018939;78;20932;-56
2021/09/20 05:13:31;;;;;;;18.45;10.13;;;;;;;12.02;92.76;100484.95;3000752;79;20987;-56
2021/09/20 05:17:34;;;;;;;16.15;8.80;;;;;;;12.06;92.12;100487.72;3001497;78;21195;-57
2021/09/20 05:21:36;;;;;;;15.28;9.70;;;;;;;11.90;92.07;100490.81;3001214;78;20956;-57
2021/09/20 05:25:46;;;;;;;11.83;8.38;;;;;;;11.74;92.66;100499.23;3001205;79;21003;-57
2021/09/20 05:29:48;;;;;;;13.53;9.08;;;;;;;11.71;92.99;100498.16;3001499;78;20948;-57
2021/09/20 05:34:00;;;;;;;9.75;8.65;;;;;;;11.74;93.00;100501.06;3001443;78;21026;-57
2021/09/20 05:38:02;;;;;;;11.15;8.55;;;;;;;11.78;93.09;100507.83;3001856;79;21006;-60
2021/09/20 05:42:11;;;;;;;15.32;10.98;;;;;;;11.95;93.69;100521.05;3001723;78;21042;-57
2021/09/20 05:46:14;;;;;;;11.38;9.85;;;;;;;12.14;93.45;100530.56;3001693;79;20967;-56
2021/09/20 05:50:21;;;;;;;13.65;9.45;;;;;;;12.34;93.26;100533.34;3001960;79;20955;-56
2021/09/20 05:54:23;;;;;;;16.07;10.60;;;;;;;12.48;92.91;100538.86;3001258;79;21066;-57
2021/09/20 05:58:55;;;;;;;11.22;8.85;;;;;;;12.61;92.11;100539.97;3008413;79;20963;-57
2021/09/20 06:02:57;;;;;;;12.58;11.05;;;;;;;12.73;92.29;100540.73;3013877;78;20951;-58
2021/09/20 06:07:09;;;;;;;14.07;10.03;;;;;;;12.82;91.15;100535.08;3013491;78;20991;-57
2021/09/20 06:11:31;;;;;;;11.70;9.83;;;;;;;12.88;90.79;100534.53;3011777;78;20991;-59
2021/09/20 06:15:36;;;;;;;13.88;9.33;;;;;;;12.92;90.81;100536.45;3007878;79;20974;-57
2021/09/20 06:19:51;;;;;;;9.60;8.15;;;;;;;12.92;89.68;100539.12;2971511;80;21006;-56
2021/09/20 06:23:53;;;;;;;10.18;7.47;;;;;;;12.98;89.92;100535.42;2972433;80;21025;-57
2021/09/20 06:27:55;;;;;;;10.60;8.55;;;;;;;13.08;89.28;100540.79;3003649;79;20971;-57
2021/09/20 06:31:58;;;;;;;10.63;8.35;;;;;;;13.13;88.83;100544.37;3003201;79;20991;-57
2021/09/20 06:36:03;;;;;;;9.50;8.00;;;;;;;13.16;88.18;100539.25;2976135;79;21022;-58
2021/09/20 06:40:08;;;;;;;11.88;8.13;;;;;;;13.16;88.08;100540.59;3007914;79;21023;-62
2021/09/20 06:44:11;;;;;;;11.63;7.00;;;;;;;13.21;87.88;100543.22;3008172;79;21002;-58
2021/09/20 06:48:19;;;;;;;7.33;6.05;;;;;;;13.32;88.41;100550.74;3007919;79;21293;-58
2021/09/20 06:52:22;;;;;;;19.32;6.80;;;;;;;13.38;87.21;100552.89;2971511;80;20971;-57
2021/09/20 06:56:24;;;;;;;16.77;9.10;;;;;;;13.41;86.15;100551.27;2917215;81;21065;-58
2021/09/20 07:00:32;;;;;;;10.25;8.05;;;;;;;13.47;86.04;100553.41;2912868;81;20998;-57
2021/09/20 07:04:34;;;;;;;9.25;8.33;;;;;;;13.53;85.43;100562.20;2919715;80;20958;-56
2021/09/20 07:08:37;;;;;;;10.93;8.48;;;;;;;13.54;85.33;100563.06;2919714;81;21034;-57
2021/09/20 07:12:41;;;;;;;11.15;8.03;;;;;;;13.53;84.46;100564.88;2919490;80;20959;-58
2021/09/20 07:16:44;;;;;;;10.65;7.87;;;;;;;13.53;84.14;100571.55;2919843;81;21070;-56
2021/09/20 07:20:50;;;;;;;10.48;7.65;;;;;;;13.52;84.30;100577.88;2919784;81;20947;-57
2021/09/20 07:24:52;;;;;;;12.45;7.50;;;;;;;13.51;84.72;100583.38;2919902;81;20983;-58
2021/09/20 07:28:56;;;;;;;10.65;8.00;;;;;;;13.54;84.07;100588.45;2919545;81;20990;-57
2021/09/20 07:32:59;;;;;;;6.83;6.03;;;;;;;13.54;83.94;100588.45;2919578;81;21014;-58
2021/09/20 07:37:02;;;;;;;8.10;6.72;;;;;;;13.55;84.15;100588.80;2919636;81;21030;-58
2021/09/20 07:41:06;;;;;;;10.43;7.53;;;;;;;13.54;83.91;100589.28;2919704;81;21090;-62
2021/09/20 07:45:10;;;;;;;9.10;7.78;;;;;;;13.56;83.22;100587.81;2908770;82;20963;-60
2021/09/20 07:49:13;;;;;;;9.75;7.40;;;;;;;13.59;82.91;100586.71;2963268;80;21004;-58
2021/09/20 07:53:21;;;;;;;7.78;6.53;;;;;;;13.66;82.79;100597.19;2963638;80;20978;-57
2021/09/20 07:57:23;;;;;;;10.43;8.55;;;;;;;13.68;82.96;100601.42;2956170;80;21051;-57
2021/09/20 08:01:32;;;;;;;11.20;9.00;;;;;;;13.73;82.58;100605.50;2947171;80;21027;-58
2021/09/20 08:05:35;;;;;;;8.50;7.15;;;;;;;13.76;82.71;100608.75;2947266;80;20976;-56
2021/09/20 08:09:37;;;;;;;13.22;7.72;;;;;;;13.82;82.00;100616.69;2947316;81;20940;-58
2021/09/20 08:13:39;;;;;;;10.70;8.55;;;;;;;13.83;82.15;100610.36;2952004;80;21039;-57
2021/09/20 08:17:45;;;;;;;8.68;7.80;;;;;;;13.91;82.22;100611.00;2971203;79;30774;-56
2021/09/20 08:21:48;;;;;;;9.58;7.10;;;;;;;13.97;81.00;100619.31;2993657;79;20980;-56
2021/09/20 08:25:51;;;;;;;10.00;7.72;;;;;;;13.98;80.65;100617.50;2993330;79;21004;-57
2021/09/20 08:30:04;;;;;;;12.85;8.43;;;;;;;14.02;80.57;100621.58;2993828;79;20999;-58
2021/09/20 08:34:06;;;;;;;10.25;7.20;;;;;;;14.05;80.85;100619.95;2993824;79;20990;-63
2021/09/20 08:38:08;;;;;;;8.85;6.42;;;;;;;14.11;80.70;100625.23;2993540;79;21026;-59
2021/09/20 08:42:10;;;;;;;7.97;5.45;;;;;;;14.11;80.77;100638.11;2993714;79;20940;-59
2021/09/20 08:46:14;;;;;;;7.65;6.08;;;;;;;14.10;79.96;100635.08;2962574;79;20991;-56
2021/09/20 08:50:22;;;;;;;7.85;7.10;;;;;;;14.12;79.90;100638.45;2993689;79;21046;-57
2021/09/20 08:54:26;;;;;;;9.65;6.47;;;;;;;14.16;80.05;100636.86;2993905;79;20999;-57
2021/09/20 08:58:29;;;;;;;12.85;6.95;;;;;;;14.23;79.98;100628.61;2993473;79;21096;-57
2021/09/20 09:02:32;;;;;;;6.33;5.65;;;;;;;14.36;79.30;100629.66;2994127;79;20952;-56
2021/09/20 09:06:37;;;;;;;6.47;5.67;;;;;;;14.43;78.85;100634.30;2994301;79;21015;-57
2021/09/20 09:11:17;;;;;;;8.80;5.83;;;;;;;14.45;77.67;100630.64;2994787;79;20987;-57
2021/09/20 09:15:23;;;;;;;10.53;5.70;;;;;;;14.47;77.66;100633.53;3008100;79;20994;-60
2021/09/20 09:19:25;;;;;;;25.55;6.60;;;;;;;14.58;78.45;100647.25;2971900;80;21144;-57
2021/09/20 09:23:33;;;;;;;6.42;5.72;;;;;;;14.65;77.48;100647.02;3003200;79;21030;-57
2021/09/20 09:27:37;;;;;;;7.00;5.22;;;;;;;14.71;77.43;100646.46;2964118;78;20994;-57
2021/09/20 09:31:45;;;;;;;8.83;5.67;;;;;;;14.70;76.66;100644.74;2917139;78;21034;-59
2021/09/20 09:35:51;;;;;;;7.58;5.80;;;;;;;14.73;76.34;100641.45;2913226;81;20996;-56
2021/09/20 09:40:12;;;;;;;6.50;4.87;;;;;;;14.76;76.58;100640.69;3008300;79;20968;-56
2021/09/20 09:44:15;;;;;;;6.78;5.10;;;;;;;14.67;76.68;100643.70;3006378;79;21123;-57
2021/09/20 09:48:22;;;;;;;6.58;5.45;;;;;;;14.69;77.44;100647.08;3008371;79;20952;-60
2021/09/20 09:52:23;;;;;;;7.78;5.85;;;;;;;14.68;77.32;100643.22;3008277;79;20956;-59
2021/09/20 09:56:35;;;;;;;9.78;6.25;;;;;;;14.67;77.41;100642.36;2971440;78;21082;-56
2021/09/20 10:00:38;;;;;;;6.83;5.25;;;;;;;14.81;77.68;100645.61;2916983;78;20940;-59
2021/09/20 10:04:58;;;;;;;8.03;5.45;;;;;;;15.12;77.88;100642.68;2916158;78;20971;-61
2021/09/20 10:09:01;;;;;;;7.05;6.22;;;;;;;15.41;75.48;100645.74;2916970;78;20999;-61
2021/09/20 10:13:04;;;;;;;8.88;5.62;;;;;;;15.67;74.39;100640.52;2963815;78;20952;-59
2021/09/20 10:17:08;;;;;;;5.83;4.78;;;;;;;15.95;74.68;100634.30;3012056;79;20952;-61
2021/09/20 10:21:10;;;;;;;7.33;5.80;;;;;;;16.19;74.90;100634.18;2953146;78;20960;-61
2021/09/20 10:25:22;;;;;;;6.97;4.92;;;;;;;16.33;72.92;100630.10;2997571;78;20991;-59
2021/09/20 10:29:25;;;;;;;6.40;4.87;;;;;;;16.49;71.99;100620.84;2999864;79;21093;-59
2021/09/20 10:33:28;;;;;;;7.42;5.03;;;;;;;16.54;70.69;100621.72;3001525;79;21010;-58
2021/09/20 10:37:33;;;;;;;7.42;4.85;;;;;;;16.51;71.30;100624.72;3001014;79;21003;-58
2021/09/20 11:09:46;;;;;;;5.75;2.92;;;;;;;17.21;65.78;100614.91;2983363;78;21011;-57
2021/09/20 11:14:02;;;;;;;5.55;3.37;;;;;;;17.26;66.56;100616.09;2937258;81;20963;-57
2021/09/20 11:18:04;;;;;;;;;;;;;;;17.22;65.35;100618.77;2894545;82;21050;-58
2021/09/20 11:22:16;;;;;;;4.50;2.92;;;;;;;17.09;64.42;100621.05;2853095;83;20076;-60
2021/09/20 11:26:20;;;;;;;4.12;2.98;;;;;;;17.11;64.65;100619.89;2892246;82;20964;-57
2021/09/20 11:30:27;;;;;;;5.20;3.42;;;;;;;17.18;66.28;100622.78;2937210;81;21010;-57
2021/09/20 11:34:35;;;;;;;3.67;2.52;;;;;;;17.35;65.41;100623.69;2892513;81;21023;-57
2021/09/20 11:38:37;;;;;;;3.65;2.90;;;;;;;17.44;65.57;100624.56;2936796;81;20987;-56
2021/09/20 11:42:44;;;;;;;6.47;3.15;;;;;;;17.55;65.18;100621.58;2892479;82;20960;-60
2021/09/20 11:46:46;;;;;;;4.95;3.17;;;;;;;17.62;65.07;100622.27;2937228;81;20963;-58
2021/09/20 11:50:48;;;;;;;4.37;3.27;;;;;;;17.48;64.83;100623.73;2896878;82;20968;-57
2021/09/20 11:54:52;;;;;;;5.45;2.95;;;;;;;17.59;65.12;100632.01;2936915;81;20963;-59
2021/09/20 11:59:00;;;;;;;4.47;3.72;;;;;;;17.54;64.02;100623.08;2937281;81;20985;-56
2021/09/20 12:03:08;;;;;;;6.25;3.35;;;;;;;17.46;64.03;100623.89;2892550;82;20976;-58
2021/09/20 12:07:33;;;;;;;5.47;3.75;;;;;;;17.33;64.62;100620.84;2937599;80;20931;-58
2021/09/20 12:11:35;;;;;;;6.50;3.83;;;;;;;17.35;65.96;100622.86;2949903;80;20994;-57
2021/09/20 12:16:15;;;;;;;3.72;3.40;;;;;;;17.59;66.22;100619.42;2957858;80;20986;-59
2021/09/20 12:20:21;;;;;;;6.75;3.85;;;;;;;17.80;64.97;100624.84;2958218;80;20951;-58
2021/09/20 12:24:24;;;;;;;3.15;2.90;;;;;;;18.01;64.97;100619.49;2958124;80;20971;-57
2021/09/20 12:29:06;;;;;;;4.87;2.98;;;;;;;18.15;62.11;100622.88;2958300;80;20958;-57
2021/09/20 12:33:12;;;;;;;4.87;2.77;;;;;;;18.41;61.44;100621.37;2958359;80;20946;-60
2021/09/20 12:37:18;;;;;;;;;;;;;;;18.58;61.69;100615.14;2961085;80;20979;-57
2021/09/20 12:41:21;;;;;;;4.67;2.65;;;;;;;18.47;60.30;100623.89;2955622;80;20087;-59
2021/09/20 12:45:24;;;;;;;3.60;2.55;;;;;;;18.15;61.34;100624.74;2958467;80;20982;-57
2021/09/20 12:49:34;;;;;;;3.72;1.95;;;;;;;17.85;61.18;100631.91;2958789;80;20946;-56
2021/09/20 12:53:45;;;;;;;4.70;2.95;;;;;;;17.60;61.89;100627.83;2958535;80;20934;-58
2021/09/20 12:57:56;;;;;;;3.35;2.12;;;;;;;17.31;61.41;100626.88;2958554;80;20967;-57
2021/09/20 13:01:59;;;;;;;4.47;3.17;;;;;;;17.10;62.58;100625.45;2958656;80;20931;-58
2021/09/20 13:06:53;;;;;;;3.33;2.65;;;;;;;16.98;62.67;100631.54;2958493;80;21031;-58
2021/09/20 13:11:16;;;;;;;4.03;1.85;;;;;;;16.86;62.66;100630.97;2944942;80;20982;-57
2021/09/20 13:15:25;;;;;;;4.83;3.33;;;;;;;16.73;62.37;100633.27;2958700;80;20995;-57
2021/09/20 13:19:28;;;;;;;2.72;2.20;;;;;;;16.64;63.14;100633.19;2958434;80;21010;-56
2021/09/20 13:23:44;;;;;;;3.25;2.30;;;;;;;16.62;64.24;100636.53;2958727;80;20984;-57
2021/09/20 13:27:47;;;;;;;;;;;;;;;16.59;64.48;100630.14;2961417;80;20916;-57
2021/09/20 13:31:51;;;;;;;4.20;2.67;;;;;;;16.59;63.91;100642.22;2958713;80;20094;-57
2021/09/20 13:36:00;;;;;;;3.47;3.17;;;;;;;16.59;64.13;100637.34;2958577;80;20975;-56
2021/09/20 13:40:09;;;;;;;3.75;3.05;;;;;;;16.60;64.44;100638.53;2958094;80;20919;-57
2021/09/20 13:44:11;;;;;;;8.48;4.00;;;;;;;16.64;64.44;100642.59;2958277;80;20935;-58
2021/09/20 13:48:15;;;;;;;3.37;3.08;;;;;;;16.65;64.50;100644.79;2957756;80;20978;-58
2021/09/20 13:52:18;;;;;;;4.78;3.37;;;;;;;16.68;64.93;100649.33;2958140;80;20974;-56
2021/09/20 13:56:22;;;;;;;2.62;2.12;;;;;;;16.73;64.32;100658.78;2958137;80;21013;-60
2021/09/20 14:00:24;;;;;;;6.42;3.98;;;;;;;16.77;63.90;100658.28;2958283;80;20954;-57
2021/09/20 14:04:27;;;;;;;4.37;2.72;;;;;;;16.81;64.01;100658.82;2958256;80;21038;-58
2021/09/20 14:08:31;;;;;;;5.08;3.42;;;;;;;16.84;63.99;100666.08;2958270;79;20978;-57
2021/09/20 14:12:33;;;;;;;3.87;3.08;;;;;;;16.83;63.76;100660.84;2954961;80;21010;-57
2021/09/20 14:16:35;;;;;;;7.50;3.12;;;;;;;16.87;63.15;100660.87;2954859;80;21002;-58
2021/09/20 14:20:42;;;;;;;3.98;2.60;;;;;;;16.91;63.26;100662.27;2953965;80;20974;-57
2021/09/20 14:24:45;;;;;;;3.25;2.58;;;;;;;16.91;63.52;100660.06;2954781;80;20916;-56
2021/09/20 14:28:47;;;;;;;3.77;2.15;;;;;;;16.87;63.52;100658.17;2954553;80;20990;-57
2021/09/20 14:32:50;;;;;;;4.58;2.95;;;;;;;16.85;63.87;100665.07;2954576;80;20962;-56
2021/09/20 14:36:55;;;;;;;2.83;2.55;;;;;;;16.86;64.10;100667.23;2954752;80;21002;-57
2021/09/20 14:40:58;;;;;;;5.40;2.98;;;;;;;16.85;63.76;100672.27;2954413;80;21049;-57
2021/09/20 14:45:08;;;;;;;3.42;3.02;;;;;;;16.92;63.89;100675.17;2954713;80;20998;-58
2021/09/20 14:49:10;;;;;;;3.33;2.75;;;;;;;16.94;64.00;100671.83;2954715;80;21014;-57
2021/09/20 14:53:12;;;;;;;5.08;3.08;;;;;;;16.95;64.51;100674.86;2954323;80;20963;-57
2021/09/20 14:57:33;;;;;;;5.60;2.67;;;;;;;16.92;62.24;100680.55;2954248;80;21010;-57
2021/09/20 15:01:35;;;;;;;4.25;2.08;;;;;;;16.92;62.46;100679.20;2954528;80;21279;-57
2021/09/20 15:05:38;;;;;;;4.35;2.83;;;;;;;16.85;63.01;100678.50;2947670;80;20991;-56
2021/09/20 15:18:33;;;;;;;2.72;2.30;;;;;;;16.95;64.24;100687.80;2968322;78;20083;-57
2021/09/20 15:22:37;;;;;;;6.55;3.42;;;;;;;16.95;64.74;100693.66;2986638;79;21012;-58
2021/09/20 15:27:05;;;;;;;2.47;2.10;;;;;;;16.93;64.82;100689.81;2987235;79;20955;-60
2021/09/20 15:31:10;;;;;;;4.85;2.87;;;;;;;16.95;64.76;100691.84;2988092;79;20932;-58
2021/09/20 15:35:13;;;;;;;3.25;2.77;;;;;;;16.91;64.38;100692.30;2974064;79;20935;-60
2021/09/20 15:39:16;;;;;;;4.17;2.90;;;;;;;16.89;64.98;100696.48;2960170;78;20951;-58
2021/09/20 15:43:18;;;;;;;5.65;3.77;;;;;;;16.80;64.51;100698.77;2959904;80;20970;-58
2021/09/20 15:47:20;;;;;;;4.83;3.37;;;;;;;16.80;64.58;100705.01;2959384;80;20943;-57
2021/09/20 15:51:42;;;;;;;2.05;1.90;;;;;;;16.85;64.12;100704.03;2959890;80;21002;-58
2021/09/20 15:55:45;;;;;;;5.28;3.40;;;;;;;16.82;64.65;100713.75;2960100;80;20974;-61
2021/09/20 15:59:48;;;;;;;4.03;3.33;;;;;;;16.79;64.34;100720.75;2959910;78;21021;-58
2021/09/20 16:03:50;;;;;;;3.95;2.87;;;;;;;16.70;64.60;100723.91;2960188;80;21009;-57
2021/09/20 16:07:52;;;;;;;3.30;2.50;;;;;;;16.66;64.72;100727.88;2960206;80;20966;-57
2021/09/20 16:25:06;;;;;;;7.10;4.70;;;;;;;16.39;64.66;100748.45;2848994;79;21087;-78
2021/09/20 16:29:07;;;;;;;6.08;4.47;;;;;;;16.33;65.13;100751.76;2829862;80;20996;-72
2021/09/20 16:33:10;;;;;;;4.45;3.67;;;;;;;16.27;65.75;100756.37;2829949;81;20969;-74
2021/09/20 16:37:12;;;;;;;6.12;4.10;;;;;;;16.24;66.40;100762.05;2829308;80;21040;-76
2021/09/20 16:45:47;;;;;;;5.35;4.15;;;;;;;16.13;67.11;100769.33;2868682;81;21075;-57
2021/09/20 16:49:49;;;;;;;6.85;3.65;;;;;;;16.09;67.64;100773.28;2907400;81;21011;-58
2021/09/20 16:53:51;;;;;;;8.25;3.92;;;;;;;15.99;67.85;100767.97;2907080;80;20990;-57
2021/09/20 16:57:53;;;;;;;5.05;4.25;;;;;;;15.89;68.13;100773.91;2907204;82;20951;-57
2021/09/20 17:02:07;;;;;;;5.35;4.25;;;;;;;15.80;68.39;100777.42;2907627;82;20967;-58
2021/09/20 17:06:09;;;;;;;5.47;4.08;;;;;;;15.74;68.66;100781.57;2907185;81;20971;-61
2021/09/20 17:10:14;;;;;;;6.67;5.22;;;;;;;15.67;69.11;100785.81;2907334;82;20987;-57
2021/09/20 17:14:17;;;;;;;5.58;4.30;;;;;;;15.60;69.34;100790.09;2907411;82;21042;-57
2021/09/20 17:18:19;;;;;;;7.70;4.87;;;;;;;15.51;69.74;100794.48;2907282;82;21010;-57
2021/09/20 17:22:31;;;;;;;8.55;6.15;;;;;;;15.41;70.27;100798.02;2907398;81;20939;-56
2021/09/20 17:26:34;;;;;;;9.83;5.92;;;;;;;15.32;70.43;100804.27;2907539;82;20971;-57
2021/09/20 17:30:39;;;;;;;12.03;7.28;;;;;;;15.23;70.67;100804.63;2907373;82;21022;-56
2021/09/20 17:34:43;;;;;;;8.65;6.50;;;;;;;15.18;71.05;100804.70;2907715;80;21006;-58
2021/09/20 17:38:46;;;;;;;7.25;5.62;;;;;;;15.14;70.78;100809.02;2907320;82;20998;-58
2021/09/20 17:42:48;;;;;;;8.78;7.10;;;;;;;15.11;70.82;100807.11;2907623;80;20979;-56
2021/09/20 17:46:50;;;;;;;9.68;7.20;;;;;;;15.06;70.90;100812.05;2872641;80;21019;-57
2021/09/20 17:50:55;;;;;;;14.78;7.80;;;;;;;15.04;71.26;100820.25;2872612;83;20992;-56
2021/09/20 17:54:57;;;;;;;8.03;6.25;;;;;;;14.97;71.54;100823.13;2872857;80;21217;-57
2021/09/20 17:59:00;;;;;;;6.83;6.12;;;;;;;14.91;71.60;100827.21;2872452;83;21000;-57
2021/09/20 18:03:10;;;;;;;10.28;7.85;;;;;;;14.79;72.02;100832.38;2872685;83;21004;-58
2021/09/20 18:07:12;;;;;;;25.08;14.07;;;;;;;14.70;72.15;100831.34;2872505;83;20988;-60
2021/09/20 18:11:15;;;;;;;16.00;11.70;;;;;;;14.59;73.33;100837.67;2872258;83;21039;-56
2021/09/20 18:15:33;;;;;;;6.58;4.72;;;;;;;14.50;74.39;100838.01;2872877;82;21023;-57
2021/09/20 18:19:36;;;;;;;9.45;4.60;;;;;;;14.46;74.96;100847.78;2872609;83;21027;-56
2021/09/20 18:23:39;;;;;;;8.18;6.25;;;;;;;14.39;75.21;100848.34;2872490;82;21135;-56
2021/09/20 18:27:42;;;;;;;7.60;5.95;;;;;;;14.32;75.73;100858.39;2872447;83;20976;-59
2021/09/20 18:31:46;;;;;;;6.80;6.10;;;;;;;14.18;76.17;100860.95;2872661;83;21000;-58
2021/09/20 18:35:50;;;;;;;7.20;5.97;;;;;;;14.21;76.98;100866.86;2872539;83;20932;-59
2021/09/20 18:39:51;;;;;;;9.58;7.22;;;;;;;14.27;76.99;100874.37;2872223;83;20969;-56
2021/09/20 18:43:53;;;;;;;10.23;6.97;;;;;;;14.31;76.85;100874.92;2879527;82;20991;-56
2021/09/20 18:47:56;;;;;;;9.55;8.00;;;;;;;14.30;77.58;100878.58;2907624;82;20972;-56
2021/09/20 18:51:58;;;;;;;11.85;7.58;;;;;;;14.27;77.80;100878.38;2907504;82;20939;-55
2021/09/20 18:56:13;;;;;;;14.43;8.28;;;;;;;14.28;77.99;100876.06;2907448;82;21045;-57
2021/09/20 19:00:17;;;;;;;10.68;7.55;;;;;;;14.19;78.60;100886.72;2907332;82;20979;-57
2021/09/20 19:04:19;;;;;;;9.28;6.30;;;;;;;14.20;78.84;100893.77;2907395;80;21323;-57
2021/09/20 19:08:22;;;;;;;8.43;6.90;;;;;;;14.22;78.84;100900.66;2907501;82;20971;-58
2021/09/20 19:12:24;;;;;;;8.73;7.37;;;;;;;14.16;79.11;100895.02;2907679;82;20990;-56
2021/09/20 19:16:27;;;;;;;14.73;8.65;;;;;;;14.11;79.30;100901.60;2911507;81;21002;-56
2021/09/20 19:20:30;;;;;;;9.23;7.97;;;;;;;13.96;79.38;100903.79;2907250;82;20983;-56
2021/09/20 19:24:32;;;;;;;9.68;6.75;;;;;;;13.70;80.12;100910.04;2907452;82;21022;-58
2021/09/20 19:29:07;;;;;;;12.00;9.28;;;;;;;13.48;80.95;100913.20;2907430;82;20990;-55
2021/09/20 19:33:10;;;;;;;14.33;9.30;;;;;;;13.34;81.75;100925.02;2907910;82;20998;-58
2021/09/20 19:37:16;;;;;;;12.90;9.60;;;;;;;13.14;82.83;100926.67;2885786;81;20967;-58
2021/09/20 19:41:21;;;;;;;16.70;10.78;;;;;;;13.06;83.52;100933.14;2863696;83;21028;-57
2021/09/20 19:45:23;;;;;;;13.53;9.57;;;;;;;13.05;83.98;100932.28;2901285;82;20971;-57
2021/09/20 19:49:25;;;;;;;13.98;11.25;;;;;;;13.03;84.06;100940.08;2901636;82;21041;-58
2021/09/20 19:53:27;;;;;;;19.67;13.25;;;;;;;13.03;84.12;100941.41;2901741;82;21052;-57